createdAt,value
2024-05-09T00:01:46.826Z,65.43
2024-05-09T00:04:49.674Z,65.54
2024-05-09T00:07:52.529Z,65.65
2024-05-09T00:10:55.335Z,65.71
2024-05-09T00:13:58.233Z,65.86
2024-05-09T00:17:00.983Z,65.79
2024-05-09T00:20:10.933Z,65.93
2024-05-09T00:23:16.836Z,66.01
2024-05-09T00:26:19.661Z,66.01
2024-05-09T00:29:22.942Z,66.10
2024-05-09T00:32:25.906Z,66.05
2024-05-09T00:35:29.073Z,66.20
2024-05-09T00:38:32.013Z,66.34
2024-05-09T00:41:34.962Z,66.29
2024-05-09T00:44:37.800Z,66.38
2024-05-09T00:47:42.794Z,66.33
2024-05-09T00:50:46.736Z,66.50
2024-05-09T00:53:49.633Z,66.40
2024-05-09T00:56:53.072Z,66.53
2024-05-09T00:59:56.281Z,66.58
2024-05-09T01:02:59.302Z,66.48
2024-05-09T01:06:02.310Z,66.74
2024-05-09T01:09:05.190Z,66.68
2024-05-09T01:12:08.539Z,66.72
2024-05-09T01:15:11.447Z,66.87
2024-05-09T01:18:14.872Z,66.96
2024-05-09T01:21:17.882Z,67.04
2024-05-09T01:24:20.630Z,67.03
2024-05-09T01:27:23.409Z,67.14
2024-05-09T01:30:33.021Z,67.06
2024-05-09T01:33:38.516Z,67.15
2024-05-09T01:36:41.544Z,67.15
2024-05-09T01:39:44.331Z,67.16
2024-05-09T01:42:47.069Z,67.36
2024-05-09T01:45:49.744Z,67.39
2024-05-09T01:48:52.565Z,67.36
2024-05-09T01:51:55.409Z,67.44
2024-05-09T01:54:58.695Z,67.37
2024-05-09T01:58:02.439Z,67.50
2024-05-09T02:01:05.676Z,67.56
2024-05-09T02:04:08.734Z,67.51
2024-05-09T02:07:11.572Z,67.37
2024-05-09T02:10:20.426Z,67.57
2024-05-09T02:13:28.716Z,67.65
2024-05-09T02:16:31.523Z,67.71
2024-05-09T02:19:34.342Z,67.72
2024-05-09T02:22:37.264Z,67.70
2024-05-09T02:25:40.718Z,67.62
2024-05-09T02:28:43.548Z,67.63
2024-05-09T02:31:46.462Z,67.63
2024-05-09T02:34:49.330Z,67.68
2024-05-09T02:37:52.154Z,67.61
2024-05-09T02:40:54.839Z,67.76
2024-05-09T02:43:57.740Z,67.72
2024-05-09T02:47:00.525Z,67.65
2024-05-09T02:50:04.571Z,67.70
2024-05-09T02:53:09.931Z,67.78
2024-05-09T02:56:12.991Z,67.78
2024-05-09T02:59:15.976Z,67.84
2024-05-09T03:02:18.877Z,67.72
2024-05-09T03:05:21.860Z,67.89
2024-05-09T03:08:25.933Z,67.99
2024-05-09T03:11:28.839Z,67.79
2024-05-09T03:14:31.740Z,67.82
2024-05-09T03:17:34.751Z,67.93
2024-05-09T03:20:38.735Z,68.00
2024-05-09T03:23:43.172Z,68.03
2024-05-09T03:26:46.397Z,68.14
2024-05-09T03:29:49.143Z,68.16
2024-05-09T03:32:51.993Z,68.30
2024-05-09T03:35:54.863Z,68.40
2024-05-09T03:38:57.846Z,68.51
2024-05-09T03:42:00.655Z,68.72
2024-05-09T03:45:03.745Z,68.74
2024-05-09T03:48:08.825Z,68.71
2024-05-09T03:51:12.009Z,68.57
2024-05-09T03:54:14.839Z,68.63
2024-05-09T03:57:17.619Z,68.67
2024-05-09T04:00:30.408Z,68.76
2024-05-09T04:03:38.962Z,68.73
2024-05-09T04:06:42.435Z,68.75
2024-05-09T04:09:45.150Z,68.87
2024-05-09T04:12:47.814Z,68.85
2024-05-09T04:15:50.553Z,68.93
2024-05-09T04:18:53.435Z,69.03
2024-05-09T04:21:56.330Z,70.15
2024-05-09T04:24:59.113Z,71.13
2024-05-09T04:28:02.011Z,71.12
2024-05-09T04:31:05.092Z,70.24
2024-05-09T04:34:07.948Z,69.92
2024-05-09T04:37:10.883Z,70.85
2024-05-09T04:40:24.114Z,71.25
2024-05-09T04:43:34.694Z,71.48
2024-05-09T04:46:38.955Z,70.94
2024-05-09T04:49:42.013Z,70.75
2024-05-09T04:52:44.673Z,70.33
2024-05-09T04:55:47.638Z,69.79
2024-05-09T04:58:50.537Z,69.47
2024-05-09T05:01:53.529Z,69.35
2024-05-09T05:04:56.563Z,69.13
2024-05-09T05:08:00.039Z,69.07
2024-05-09T05:11:03.176Z,68.96
2024-05-09T05:14:06.003Z,69.03
2024-05-09T05:17:09.001Z,68.71
2024-05-09T05:20:15.253Z,68.67
2024-05-09T05:23:22.144Z,68.36
2024-05-09T05:26:24.931Z,67.90
2024-05-09T05:29:27.859Z,68.15
2024-05-09T05:32:30.814Z,68.13
2024-05-09T05:35:34.429Z,67.94
2024-05-09T05:38:37.433Z,67.84
2024-05-09T05:41:40.269Z,67.65
2024-05-09T05:44:42.968Z,67.21
2024-05-09T05:47:46.054Z,66.93
2024-05-09T05:50:49.056Z,66.48
2024-05-09T05:53:51.933Z,66.05
2024-05-09T05:56:54.656Z,66.08
2024-05-09T05:59:57.304Z,65.95
2024-05-09T06:03:00.103Z,65.69
2024-05-09T06:06:03.754Z,65.05
2024-05-09T06:09:06.832Z,65.08
2024-05-09T06:12:09.722Z,64.90
2024-05-09T06:15:12.688Z,64.45
2024-05-09T06:18:15.834Z,64.05
2024-05-09T06:21:18.699Z,63.86
2024-05-09T06:24:21.387Z,63.21
2024-05-09T06:27:24.204Z,63.13
2024-05-09T06:30:36.501Z,62.55
2024-05-09T06:33:42.510Z,62.44
2024-05-09T06:36:45.446Z,62.45
2024-05-09T06:39:48.172Z,62.19
2024-05-09T06:42:51.102Z,61.98
2024-05-09T06:45:53.823Z,61.39
2024-05-09T06:48:56.967Z,61.14
2024-05-09T06:51:59.857Z,60.82
2024-05-09T06:55:02.612Z,60.51
2024-05-09T06:58:06.848Z,60.38
2024-05-09T07:01:09.734Z,60.16
2024-05-09T07:04:12.793Z,59.73
2024-05-09T07:07:15.810Z,59.49
2024-05-09T07:10:25.802Z,59.29
2024-05-09T07:13:35.356Z,59.09
2024-05-09T07:16:38.076Z,58.91
2024-05-09T07:19:40.921Z,58.75
2024-05-09T07:22:43.856Z,58.59
2024-05-09T07:25:46.704Z,58.30
